createdAt,value
2023-05-01T00:02:09.742Z,4.53
2023-05-01T00:05:12.474Z,4.50
2023-05-01T00:08:16.033Z,4.80
2023-05-01T00:11:18.667Z,4.15
2023-05-01T00:14:21.105Z,4.15
2023-05-01T00:17:24.021Z,4.43
2023-05-01T00:20:30.105Z,4.18
2023-05-01T00:23:32.777Z,4.68
2023-05-01T00:26:35.094Z,4.65
2023-05-01T00:29:38.041Z,4.80
2023-05-01T00:32:40.836Z,5.00
2023-05-01T00:35:46.818Z,4.90
2023-05-01T00:38:49.196Z,4.82
2023-05-01T00:41:51.949Z,4.70
2023-05-01T00:44:54.646Z,4.70
2023-05-01T00:47:57.309Z,4.93
2023-05-01T00:51:01.249Z,4.43
2023-05-01T00:54:03.935Z,4.43
2023-05-01T00:57:08.327Z,4.60
2023-05-01T01:00:12.455Z,5.00
2023-05-01T01:03:14.951Z,4.53
2023-05-01T01:06:27.836Z,5.10
2023-05-01T01:09:55.373Z,4.80
2023-05-01T01:13:10.368Z,4.80
2023-05-01T01:16:20.624Z,4.85
2023-05-01T01:19:52.252Z,4.53
2023-05-01T01:23:11.834Z,4.45
2023-05-01T01:26:52.317Z,5.55
2023-05-01T01:30:25.906Z,5.20
2023-05-01T01:33:48.298Z,5.47
2023-05-01T01:37:13.290Z,5.20
2023-05-01T01:40:19.048Z,5.20
2023-05-01T01:43:22.847Z,5.15
2023-05-01T01:46:26.880Z,5.30
2023-05-01T01:49:31.484Z,5.60
2023-05-01T01:52:37.253Z,5.50
2023-05-01T01:55:41.519Z,5.87
2023-05-01T01:58:46.278Z,5.45
2023-05-01T02:01:50.715Z,5.40
2023-05-01T02:04:57.123Z,6.03
2023-05-01T02:08:00.634Z,6.40
2023-05-01T02:11:05.130Z,6.87
2023-05-01T02:14:09.287Z,6.65
2023-05-01T02:17:13.658Z,6.35
2023-05-01T02:20:16.618Z,7.12
2023-05-01T02:23:19.311Z,6.50
2023-05-01T02:26:26.610Z,7.28
2023-05-01T02:29:29.454Z,7.10
2023-05-01T02:32:32.124Z,6.37
2023-05-01T02:35:41.510Z,6.80
2023-05-01T02:38:44.371Z,6.43
2023-05-01T02:41:48.822Z,15.45
2023-05-01T02:44:58.300Z,6.62
2023-05-01T02:48:04.082Z,6.62
2023-05-01T02:51:08.002Z,5.75
2023-05-01T02:54:10.762Z,6.17
2023-05-01T02:57:13.708Z,6.30
2023-05-01T03:00:16.770Z,6.10
2023-05-01T03:03:19.667Z,5.87
2023-05-01T03:06:22.182Z,6.85
2023-05-01T03:09:25.803Z,6.70
2023-05-01T03:12:28.092Z,7.07
2023-05-01T03:15:30.789Z,7.05
2023-05-01T03:18:33.264Z,6.28
2023-05-01T03:21:37.147Z,7.07
2023-05-01T03:24:39.445Z,6.87
2023-05-01T03:27:42.506Z,6.95
2023-05-01T03:30:45.156Z,6.75
2023-05-01T03:33:48.076Z,6.95
2023-05-01T03:36:51.421Z,6.80
2023-05-01T03:39:54.474Z,6.93
2023-05-01T03:42:59.164Z,6.87
2023-05-01T03:46:01.942Z,6.93
2023-05-01T03:49:05.218Z,6.87
2023-05-01T03:52:08.300Z,7.70
2023-05-01T03:55:11.149Z,7.33
2023-05-01T03:58:14.014Z,7.65
2023-05-01T04:01:16.349Z,7.82
2023-05-01T04:04:19.314Z,8.52
2023-05-01T04:07:21.970Z,8.15
2023-05-01T04:10:25.266Z,8.03
2023-05-01T04:13:28.118Z,7.72
2023-05-01T04:16:31.779Z,8.73
2023-05-01T04:19:34.861Z,8.52
2023-05-01T04:22:37.685Z,8.30
2023-05-01T04:25:40.178Z,7.83
2023-05-01T04:28:43.294Z,8.50
2023-05-01T04:31:46.587Z,8.35
2023-05-01T04:34:49.434Z,8.88
2023-05-01T04:37:52.238Z,8.68
2023-05-01T04:40:54.937Z,8.47
2023-05-01T04:43:57.308Z,8.63
2023-05-01T04:47:02.973Z,7.75
2023-05-01T04:50:06.690Z,8.48
2023-05-01T04:53:09.703Z,8.30
2023-05-01T04:56:12.245Z,8.50
2023-05-01T04:59:15.155Z,8.30
2023-05-01T05:02:17.578Z,8.93
2023-05-01T05:05:20.280Z,8.45
2023-05-01T05:08:23.170Z,8.27
2023-05-01T05:11:26.597Z,9.07
2023-05-01T05:14:31.007Z,8.48
2023-05-01T05:17:35.819Z,7.80
2023-05-01T05:20:39.989Z,8.60
2023-05-01T05:23:42.619Z,8.07
2023-05-01T05:26:44.953Z,8.73
2023-05-01T05:29:47.585Z,8.25
2023-05-01T05:32:50.113Z,7.85
2023-05-01T05:35:53.087Z,8.27
2023-05-01T05:38:55.764Z,8.25
2023-05-01T05:41:58.988Z,7.33
2023-05-01T05:45:01.753Z,7.65
2023-05-01T05:48:04.975Z,7.60
2023-05-01T05:51:07.410Z,7.25
2023-05-01T05:54:10.602Z,7.72
2023-05-01T05:57:13.583Z,6.90
2023-05-01T06:00:18.606Z,6.07
2023-05-01T06:03:23.041Z,6.25
2023-05-01T06:06:26.519Z,6.72
2023-05-01T06:09:29.516Z,6.22
2023-05-01T06:12:33.200Z,6.20
2023-05-01T06:15:38.292Z,6.03
2023-05-01T06:18:42.138Z,5.80
2023-05-01T06:21:46.758Z,5.57
2023-05-01T06:24:49.591Z,5.55
2023-05-01T06:27:52.376Z,5.27
2023-05-01T06:30:54.944Z,4.60
2023-05-01T06:33:57.792Z,4.40
2023-05-01T06:37:01.236Z,3.95
2023-05-01T06:40:05.871Z,3.87
2023-05-01T06:43:08.370Z,4.60
2023-05-01T06:46:11.184Z,4.12
2023-05-01T06:49:13.616Z,4.05
2023-05-01T06:52:16.391Z,3.50
2023-05-01T06:55:18.842Z,3.95
2023-05-01T06:58:24.065Z,3.67
2023-05-01T07:01:27.974Z,3.65
2023-05-01T07:04:32.326Z,3.50
2023-05-01T07:07:35.086Z,3.97
2023-05-01T07:10:39.290Z,3.08
2023-05-01T07:13:43.833Z,3.73
2023-05-01T07:16:46.743Z,3.60
2023-05-01T07:19:50.204Z,3.40
2023-05-01T07:22:52.842Z,3.05
2023-05-01T07:25:55.709Z,3.65
2023-05-01T07:28:58.302Z,3.17
2023-05-01T07:32:01.497Z,3.05
2023-05-01T07:35:05.104Z,2.50
2023-05-01T07:38:07.988Z,2.67
2023-05-01T07:41:10.690Z,2.50
2023-05-01T07:44:13.943Z,2.37
2023-05-01T07:47:16.556Z,2.55
2023-05-01T07:50:18.861Z,2.90
2023-05-01T07:53:22.838Z,2.45
2023-05-01T07:56:25.161Z,2.60
2023-05-01T07:59:28.374Z,2.23
2023-05-01T08:02:30.828Z,2.30
2023-05-01T08:05:33.695Z,2.70
2023-05-01T08:08:36.027Z,2.20
2023-05-01T08:11:38.638Z,2.45
2023-05-01T08:14:41.050Z,2.47
2023-05-01T08:17:43.740Z,2.50
2023-05-01T08:20:48.090Z,2.42
2023-05-01T08:23:51.157Z,2.10
2023-05-01T08:26:53.566Z,2.67
2023-05-01T08:29:56.584Z,2.67
2023-05-01T08:32:59.180Z,2.10
2023-05-01T08:36:02.056Z,2.67
2023-05-01T08:39:05.212Z,2.58
2023-05-01T08:42:08.381Z,2.55
2023-05-01T08:45:11.912Z,2.10
2023-05-01T08:48:18.607Z,2.30
2023-05-01T08:51:23.039Z,2.47
2023-05-01T08:54:28.451Z,2.62
2023-05-01T08:57:32.301Z,2.42
2023-05-01T09:00:37.189Z,2.67
2023-05-01T09:03:39.597Z,2.03
2023-05-01T09:06:45.035Z,2.78
2023-05-01T09:09:47.584Z,2.50
2023-05-01T09:12:56.241Z,2.67
2023-05-01T09:16:00.487Z,2.80
2023-05-01T09:19:03.556Z,2.30
2023-05-01T09:22:05.936Z,2.83
2023-05-01T09:25:10.961Z,2.80
2023-05-01T09:28:13.389Z,2.37
2023-05-01T09:31:23.466Z,2.60
2023-05-01T09:34:25.887Z,2.67
2023-05-01T09:37:30.384Z,2.00
2023-05-01T09:40:32.904Z,2.28
2023-05-01T09:43:35.699Z,2.60
2023-05-01T09:46:42.368Z,2.63
2023-05-01T09:49:48.373Z,2.58
2023-05-01T09:52:52.687Z,2.65
2023-05-01T09:56:04.503Z,2.62
2023-05-01T09:59:18.115Z,2.50
2023-05-01T10:02:30.925Z,2.70
2023-05-01T10:05:43.315Z,2.33
2023-05-01T10:08:50.703Z,2.70
2023-05-01T10:11:57.644Z,2.47
2023-05-01T10:15:05.523Z,2.95
2023-05-01T10:18:14.754Z,2.50
2023-05-01T10:21:17.354Z,3.08
2023-05-01T10:24:20.518Z,2.25
2023-05-01T10:27:24.621Z,2.62
2023-05-01T10:30:27.662Z,2.10
2023-05-01T10:33:30.152Z,2.67
2023-05-01T10:36:39.345Z,2.05
2023-05-01T10:39:41.665Z,2.45
2023-05-01T10:43:27.837Z,2.50
2023-05-01T10:46:30.589Z,2.67
2023-05-01T10:50:12.272Z,2.70
2023-05-01T10:53:15.627Z,2.22
2023-05-01T10:56:25.450Z,2.83
2023-05-01T10:59:58.997Z,2.40
2023-05-01T11:03:23.498Z,2.50
2023-05-01T11:06:26.346Z,2.70
2023-05-01T11:09:49.239Z,2.47
2023-05-01T11:12:52.871Z,2.40
2023-05-01T11:15:55.511Z,2.12
2023-05-01T11:18:57.837Z,3.17
2023-05-01T11:22:01.057Z,2.60
2023-05-01T11:25:05.038Z,2.70
2023-05-01T11:28:09.612Z,2.60
2023-05-01T11:31:18.441Z,2.12
2023-05-01T11:34:21.291Z,2.72
2023-05-01T11:37:41.032Z,2.40
2023-05-01T11:40:43.856Z,2.12
2023-05-01T11:43:54.126Z,2.70
2023-05-01T11:47:01.258Z,2.40
2023-05-01T11:50:03.804Z,2.40
2023-05-01T11:53:17.290Z,2.33
2023-05-01T11:56:27.253Z,2.25
2023-05-01T11:59:30.731Z,2.08
2023-05-01T12:02:33.465Z,2.72
2023-05-01T12:05:38.377Z,2.60
2023-05-01T12:08:47.484Z,2.00
2023-05-01T12:11:54.060Z,2.20
2023-05-01T12:14:56.660Z,1.87
2023-05-01T12:17:59.502Z,2.30
2023-05-01T12:21:02.442Z,2.22
2023-05-01T12:24:16.948Z,2.47
2023-05-01T12:27:20.031Z,2.17
2023-05-01T12:30:27.191Z,2.08
2023-05-01T12:33:30.135Z,1.80
2023-05-01T12:36:35.831Z,2.30
2023-05-01T12:39:44.666Z,2.00
2023-05-01T12:42:56.196Z,1.85
2023-05-01T12:46:02.036Z,2.10
2023-05-01T12:49:05.077Z,1.73
2023-05-01T12:52:11.266Z,2.20
2023-05-01T12:55:19.292Z,2.13
2023-05-01T12:58:37.794Z,2.28
2023-05-01T13:01:41.151Z,1.85
2023-05-01T13:04:44.798Z,1.80
2023-05-01T13:07:51.906Z,2.08
2023-05-01T13:10:57.160Z,2.67
2023-05-01T13:14:07.967Z,2.30
2023-05-01T13:17:11.774Z,1.92
2023-05-01T13:20:15.623Z,1.90
2023-05-01T13:23:18.056Z,2.30
2023-05-01T13:26:36.154Z,2.20
2023-05-01T13:29:39.750Z,2.08
2023-05-01T13:32:42.530Z,1.90
2023-05-01T13:35:44.910Z,2.20
2023-05-01T13:38:53.908Z,1.98
2023-05-01T13:41:56.383Z,2.07
2023-05-01T13:44:59.115Z,2.17
2023-05-01T13:48:03.043Z,2.10
2023-05-01T13:51:08.630Z,1.83
2023-05-01T13:54:11.500Z,1.77
2023-05-01T13:57:16.009Z,1.80
2023-05-01T14:00:18.894Z,1.70
2023-05-01T14:03:22.538Z,1.85
2023-05-01T14:06:25.145Z,2.10
2023-05-01T14:09:28.268Z,1.62
2023-05-01T14:12:32.312Z,1.80
2023-05-01T14:15:35.110Z,2.20
2023-05-01T14:18:45.202Z,2.10
2023-05-01T14:21:48.011Z,2.03
2023-05-01T14:24:51.197Z,3.62
2023-05-01T14:27:55.319Z,1.70
2023-05-01T14:30:57.948Z,1.80
2023-05-01T14:34:03.943Z,1.73
2023-05-01T14:37:06.411Z,1.98
2023-05-01T14:40:13.122Z,1.87
2023-05-01T14:43:22.099Z,1.97
2023-05-01T14:46:33.486Z,1.80
2023-05-01T14:49:36.035Z,1.70
2023-05-01T14:52:39.465Z,1.70
2023-05-01T14:55:42.232Z,1.60
2023-05-01T14:58:44.882Z,1.60
2023-05-01T15:01:47.257Z,1.98
2023-05-01T15:04:49.852Z,1.65
2023-05-01T15:07:57.064Z,1.77
2023-05-01T15:11:04.023Z,1.80
2023-05-01T15:14:06.591Z,1.70
2023-05-01T15:17:10.436Z,1.80
2023-05-01T15:20:13.715Z,1.90
2023-05-01T15:23:16.722Z,1.60
2023-05-01T15:26:19.219Z,1.80
2023-05-01T15:29:21.888Z,1.57
2023-05-01T15:32:24.556Z,1.83
2023-05-01T15:35:27.290Z,1.52
2023-05-01T15:38:30.205Z,1.90
2023-05-01T15:41:32.983Z,2.00
2023-05-01T15:44:35.542Z,1.70
2023-05-01T15:47:38.438Z,1.90
2023-05-01T15:50:41.035Z,1.90
2023-05-01T15:53:44.098Z,2.00
2023-05-01T15:56:46.434Z,1.70
2023-05-01T15:59:53.907Z,1.90
2023-05-01T16:02:56.632Z,2.00
2023-05-01T16:05:59.776Z,1.60
2023-05-01T16:09:03.001Z,1.70
2023-05-01T16:12:07.480Z,1.55
2023-05-01T16:15:10.672Z,1.57
2023-05-01T16:18:19.688Z,1.80
2023-05-01T16:21:23.663Z,1.65
2023-05-01T16:24:26.481Z,2.15
2023-05-01T16:27:29.135Z,1.52
2023-05-01T16:30:31.790Z,1.90
2023-05-01T16:33:34.143Z,1.73
2023-05-01T16:36:42.421Z,1.65
2023-05-01T16:39:44.863Z,1.42
2023-05-01T16:42:54.846Z,2.00
2023-05-01T16:45:58.326Z,1.80
2023-05-01T16:49:01.196Z,1.80
2023-05-01T16:52:05.975Z,1.92
2023-05-01T16:55:10.046Z,2.25
2023-05-01T16:58:12.428Z,1.87
2023-05-01T17:01:15.550Z,1.90
2023-05-01T17:04:18.086Z,1.92
2023-05-01T17:07:23.195Z,1.60
2023-05-01T17:10:25.532Z,2.03
2023-05-01T17:13:28.236Z,2.08
2023-05-01T17:16:32.420Z,2.10
2023-05-01T17:19:35.472Z,2.10
2023-05-01T17:22:37.903Z,1.92
2023-05-01T17:25:40.576Z,1.58
2023-05-01T17:28:46.211Z,1.77
2023-05-01T17:31:48.967Z,1.73
2023-05-01T17:34:51.598Z,2.15
2023-05-01T17:37:54.253Z,2.15
2023-05-01T17:40:56.584Z,1.83
2023-05-01T17:43:59.287Z,2.08
2023-05-01T17:47:01.688Z,1.90
2023-05-01T17:50:05.044Z,2.00
2023-05-01T17:53:07.382Z,1.87
2023-05-01T17:56:10.060Z,2.05
2023-05-01T17:59:12.829Z,2.58
2023-05-01T18:02:15.690Z,2.80
2023-05-01T18:05:18.496Z,2.70
2023-05-01T18:08:20.865Z,2.30
2023-05-01T18:11:23.646Z,2.40
2023-05-01T18:14:25.949Z,2.40
2023-05-01T18:17:28.635Z,3.10
2023-05-01T18:20:31.151Z,2.78
2023-05-01T18:23:35.700Z,2.22
2023-05-01T18:26:38.021Z,2.20
2023-05-01T18:29:40.707Z,2.35
2023-05-01T18:32:48.184Z,2.53
2023-05-01T18:35:51.106Z,2.62
2023-05-01T18:38:53.912Z,2.78
2023-05-01T18:41:56.655Z,2.55
2023-05-01T18:44:58.980Z,2.90
2023-05-01T18:48:01.787Z,2.67
2023-05-01T18:51:08.924Z,3.00
2023-05-01T18:54:12.348Z,6.12
2023-05-01T18:57:14.763Z,3.30
2023-05-01T19:00:17.633Z,2.30
2023-05-01T19:03:20.102Z,2.80
2023-05-01T19:06:22.910Z,3.35
2023-05-01T19:09:25.619Z,2.95
2023-05-01T19:12:28.730Z,3.28
2023-05-01T19:15:31.192Z,2.62
2023-05-01T19:18:34.024Z,2.97
2023-05-01T19:21:36.647Z,2.87
2023-05-01T19:24:40.028Z,2.50
2023-05-01T19:27:42.590Z,2.80
2023-05-01T19:30:45.347Z,3.05
2023-05-01T19:33:48.260Z,2.50
2023-05-01T19:36:56.465Z,2.60
2023-05-01T19:39:59.251Z,2.00
2023-05-01T19:43:02.160Z,2.97
2023-05-01T19:46:05.252Z,3.10
2023-05-01T19:49:08.492Z,2.93
2023-05-01T19:52:10.862Z,2.87
2023-05-01T19:55:14.876Z,3.25
2023-05-01T19:58:17.618Z,2.62
2023-05-01T20:01:20.570Z,2.78
2023-05-01T20:04:24.195Z,3.53
2023-05-01T20:07:27.902Z,2.75
2023-05-01T20:10:31.239Z,2.58
2023-05-01T20:13:34.015Z,2.50
2023-05-01T20:16:36.827Z,2.78
2023-05-01T20:19:39.801Z,2.97
2023-05-01T20:22:42.881Z,2.83
2023-05-01T20:25:48.477Z,2.78
2023-05-01T20:28:52.269Z,3.05
2023-05-01T20:31:54.989Z,2.92
2023-05-01T20:34:57.939Z,2.50
2023-05-01T20:38:01.415Z,2.85
2023-05-01T20:41:04.110Z,2.55
2023-05-01T20:44:07.069Z,2.70
2023-05-01T20:47:09.950Z,2.75
2023-05-01T20:50:12.456Z,3.00
2023-05-01T20:53:15.315Z,2.87
2023-05-01T20:56:17.741Z,2.53
2023-05-01T20:59:20.540Z,3.00
2023-05-01T21:02:22.928Z,2.62
2023-05-01T21:05:25.685Z,2.90
2023-05-01T21:08:28.694Z,2.53
2023-05-01T21:11:31.554Z,3.45
2023-05-01T21:14:33.921Z,3.28
2023-05-01T21:17:38.328Z,2.58
2023-05-01T21:20:41.421Z,3.47
2023-05-01T21:23:51.032Z,3.50
2023-05-01T21:26:56.724Z,3.08
2023-05-01T21:30:01.841Z,2.37
2023-05-01T21:33:08.581Z,2.70
2023-05-01T21:36:12.767Z,3.07
2023-05-01T21:39:15.868Z,3.50
2023-05-01T21:42:18.631Z,3.20
2023-05-01T21:45:21.099Z,2.62
2023-05-01T21:48:23.806Z,3.00
2023-05-01T21:51:28.532Z,3.77
2023-05-01T21:54:31.867Z,3.25
2023-05-01T21:57:39.246Z,3.40
2023-05-01T22:00:42.276Z,2.50
2023-05-01T22:03:46.911Z,3.55
2023-05-01T22:06:50.131Z,3.40
2023-05-01T22:09:52.975Z,2.80
2023-05-01T22:12:55.608Z,2.70
2023-05-01T22:15:58.706Z,2.80
2023-05-01T22:19:01.184Z,2.87
2023-05-01T22:22:03.856Z,2.90
2023-05-01T22:25:07.162Z,2.47
2023-05-01T22:28:09.754Z,3.20
2023-05-01T22:31:12.081Z,3.10
2023-05-01T22:34:14.818Z,3.22
2023-05-01T22:37:18.200Z,3.07
2023-05-01T22:40:20.996Z,3.17
2023-05-01T22:43:24.005Z,3.00
2023-05-01T22:46:26.852Z,2.70
2023-05-01T22:49:29.238Z,3.10
2023-05-01T22:52:32.133Z,3.07
2023-05-01T22:55:34.517Z,3.40
2023-05-01T22:58:37.153Z,3.03
2023-05-01T23:01:39.463Z,3.37
2023-05-01T23:04:43.046Z,3.03
2023-05-01T23:07:45.690Z,3.13
2023-05-01T23:10:48.339Z,2.75
2023-05-01T23:13:50.712Z,3.47
2023-05-01T23:16:53.466Z,3.00
2023-05-01T23:19:58.397Z,2.55
2023-05-01T23:23:05.284Z,2.70
2023-05-01T23:26:07.691Z,3.10
2023-05-01T23:29:12.516Z,2.85
2023-05-01T23:32:28.716Z,2.83
2023-05-01T23:35:31.503Z,3.00
2023-05-01T23:38:33.878Z,3.27
2023-05-01T23:41:36.724Z,2.62
2023-05-01T23:44:39.270Z,2.95
2023-05-01T23:47:41.935Z,2.95
2023-05-01T23:50:44.317Z,3.03
2023-05-01T23:53:47.049Z,2.97
2023-05-01T23:56:49.369Z,2.60
2023-05-01T23:59:52.611Z,2.80
